Time;durP1;ratioP1;P1;durP2;ratioP2;P2;SDS_P1;SDS_P2;PMS_P1;PMS_P2;Temp;Humidity;BMP_temperature;BMP_pressure;BME280_temperature;BME280_humidity;BME280_pressure;Samples;Min_cycle;Max_cycle;Signal;HPM_P1;HPM_P2
2023/06/18 00:00:40;;;;;;;11.60;8.43;;;14.80;99.90;;;;;;4995227;28;20109;-90
2023/06/18 00:03:06;;;;;;;16.17;9.00;;;14.80;99.90;;;;;;4995320;28;20031;-90
2023/06/18 00:05:32;;;;;;;12.82;8.88;;;14.80;99.90;;;;;;4993988;28;20212;-90
2023/06/18 00:07:58;;;;;;;10.60;7.82;;;14.80;99.90;;;;;;4993788;28;20121;-90
2023/06/18 00:10:24;;;;;;;13.20;8.85;;;14.70;99.90;;;;;;4993294;28;20034;-90
2023/06/18 00:12:50;;;;;;;16.75;8.45;;;14.70;99.90;;;;;;4993748;28;20030;-90
2023/06/18 00:15:15;;;;;;;;;;;14.70;99.90;;;;;;4994314;28;20051;-91
2023/06/18 00:17:41;;;;;;;16.85;8.38;;;14.70;99.90;;;;;;4993923;28;19906;-90
2023/06/18 00:20:07;;;;;;;17.92;8.35;;;14.70;99.90;;;;;;4994892;28;20026;-91
2023/06/18 00:22:38;;;;;;;11.85;8.68;;;14.70;99.90;;;;;;4993681;28;20034;-87
2023/06/18 00:25:05;;;;;;;10.93;7.30;;;14.60;99.90;;;;;;4993633;28;20026;-91
2023/06/18 00:27:31;;;;;;;16.10;7.32;;;14.70;99.90;;;;;;4993640;28;20029;-88
2023/06/18 00:29:56;;;;;;;11.55;8.02;;;14.60;99.90;;;;;;4996909;28;20038;-91
2023/06/18 00:32:22;;;;;;;11.52;8.07;;;14.60;99.90;;;;;;4995483;28;20487;-87
2023/06/18 00:34:53;;;;;;;9.63;7.82;;;14.60;99.90;;;;;;4993262;28;20026;-89
2023/06/18 00:37:20;;;;;;;12.48;8.88;;;14.60;99.90;;;;;;4993459;28;20076;-89
2023/06/18 00:39:46;;;;;;;12.23;8.40;;;14.60;99.90;;;;;;4994217;28;20065;-88
2023/06/18 00:42:12;;;;;;;13.75;9.10;;;14.50;99.90;;;;;;4993205;28;20129;-90
2023/06/18 00:44:41;;;;;;;;;;;14.50;99.90;;;;;;4993710;28;20094;-92
2023/06/18 00:47:12;;;;;;;11.93;8.02;;;14.50;99.90;;;;;;4994318;28;20000;-90
2023/06/18 00:49:41;;;;;;;14.88;8.30;;;14.50;99.90;;;;;;4992892;28;20054;-88
2023/06/18 00:52:15;;;;;;;13.27;7.53;;;14.50;99.90;;;;;;4992689;28;20030;-87
2023/06/18 00:54:44;;;;;;;11.18;8.60;;;14.50;99.90;;;;;;4992739;28;20018;-92
2023/06/18 00:57:15;;;;;;;10.77;7.95;;;14.40;99.90;;;;;;4992946;28;20121;-90
2023/06/18 00:59:44;;;;;;;10.77;7.63;;;14.50;99.90;;;;;;4992911;28;20080;-90
2023/06/18 01:02:10;;;;;;;8.95;6.85;;;14.50;99.90;;;;;;4993108;28;20026;-90
2023/06/18 01:04:36;;;;;;;;;;;14.50;99.90;;;;;;4993263;28;20125;-87
2023/06/18 01:07:03;;;;;;;10.13;7.75;;;14.40;99.90;;;;;;4993440;28;20581;-87
2023/06/18 01:09:30;;;;;;;10.13;7.55;;;14.40;99.90;;;;;;4991794;28;20176;-86
2023/06/18 01:12:00;;;;;;;11.82;8.13;;;14.40;99.90;;;;;;4993577;28;20030;-92
2023/06/18 01:14:28;;;;;;;9.40;7.55;;;14.40;99.90;;;;;;4992797;28;20527;-91
2023/06/18 01:16:59;;;;;;;13.82;9.43;;;14.40;99.90;;;;;;4992759;28;20034;-90
2023/06/18 01:20:00;;;;;;;9.18;7.35;;;14.40;99.90;;;;;;4992627;28;20041;-90
2023/06/18 01:22:26;;;;;;;16.83;8.45;;;14.40;99.90;;;;;;4991386;28;20033;-88
2023/06/18 01:24:58;;;;;;;;;;;14.30;99.90;;;;;;4993789;28;20019;-90
2023/06/18 01:27:27;;;;;;;8.27;6.43;;;14.30;99.90;;;;;;4992085;28;20382;-88
2023/06/18 01:29:56;;;;;;;11.00;7.15;;;14.30;99.90;;;;;;4991922;28;20042;-88
2023/06/18 01:32:22;;;;;;;8.52;6.57;;;14.20;99.90;;;;;;4992226;28;20022;-85
2023/06/18 01:34:53;;;;;;;;;;;14.20;99.90;;;;;;4991777;28;20523;-88
2023/06/18 01:37:35;;;;;;;9.88;7.90;;;14.30;99.90;;;;;;4992925;28;19944;-87
2023/06/18 01:40:07;;;;;;;10.23;8.68;;;14.20;99.90;;;;;;4991500;28;20031;-87
2023/06/18 01:42:37;;;;;;;14.23;7.93;;;14.20;99.90;;;;;;4992787;28;20271;-88
2023/06/18 01:45:18;;;;;;;10.82;8.60;;;14.10;99.90;;;;;;4992104;28;20376;-95
2023/06/18 01:47:45;;;;;;;12.93;7.43;;;14.10;99.90;;;;;;4992146;28;20525;-93
2023/06/18 01:50:13;;;;;;;12.60;8.50;;;14.10;99.90;;;;;;4991892;28;20038;-90
2023/06/18 01:52:42;;;;;;;10.40;8.52;;;14.10;99.90;;;;;;4993351;28;20025;-91
2023/06/18 01:55:09;;;;;;;13.75;8.77;;;14.10;99.90;;;;;;4992982;28;20510;-93
2023/06/18 01:57:34;;;;;;;13.93;9.18;;;14.00;99.90;;;;;;4992664;28;20038;-92
2023/06/18 02:00:00;;;;;;;;;;;14.00;99.90;;;;;;4992773;28;20479;-92
2023/06/18 02:02:26;;;;;;;9.80;8.80;;;14.00;99.90;;;;;;4992907;28;20338;-92
2023/06/18 02:04:51;;;;;;;;;;;13.90;99.90;;;;;;4993559;28;20034;-93
2023/06/18 02:07:17;;;;;;;11.90;9.82;;;13.90;99.90;;;;;;4991552;28;19910;-93
2023/06/18 02:09:43;;;;;;;12.30;8.98;;;13.90;99.90;;;;;;4993556;28;20088;-91
2023/06/18 02:12:09;;;;;;;11.98;8.27;;;13.90;99.90;;;;;;4993618;28;20045;-93
2023/06/18 02:14:34;;;;;;;11.13;9.27;;;13.90;99.90;;;;;;4992208;28;20054;-92
2023/06/18 02:17:00;;;;;;;;;;;13.90;99.90;;;;;;4992652;28;20052;-92
2023/06/18 02:19:26;;;;;;;17.10;9.93;;;13.90;99.90;;;;;;4992345;28;19999;-90
2023/06/18 02:21:53;;;;;;;10.85;9.23;;;13.90;99.90;;;;;;4993849;28;20015;-92
2023/06/18 02:24:19;;;;;;;10.90;9.35;;;14.00;99.90;;;;;;4996689;28;20036;-91
2023/06/18 02:26:45;;;;;;;11.07;8.82;;;14.00;99.90;;;;;;4992107;28;20022;-91
2023/06/18 02:29:10;;;;;;;;;;;14.00;99.90;;;;;;4999023;28;20026;-90
2023/06/18 02:31:36;;;;;;;12.70;8.90;;;14.00;99.90;;;;;;4994390;28;19909;-91
2023/06/18 02:34:02;;;;;;;;;;;14.00;99.90;;;;;;5000188;28;20034;-91
2023/06/18 02:36:28;;;;;;;14.30;10.25;;;14.00;99.90;;;;;;4996393;28;19905;-91
2023/06/18 02:38:55;;;;;;;11.88;9.18;;;13.90;99.90;;;;;;4995759;28;20038;-90
2023/06/18 02:41:21;;;;;;;11.75;8.52;;;14.00;99.90;;;;;;4996855;28;20029;-90
2023/06/18 02:43:49;;;;;;;;;;;13.90;99.90;;;;;;4996829;28;20030;-90
2023/06/18 02:46:16;;;;;;;11.80;9.02;;;13.90;99.90;;;;;;4997059;28;20258;-89
2023/06/18 02:48:42;;;;;;;9.65;8.20;;;13.80;99.90;;;;;;4995877;28;20023;-89
2023/06/18 02:51:07;;;;;;;;;;;13.80;99.90;;;;;;4997083;28;20043;-89
2023/06/18 02:53:33;;;;;;;10.82;9.40;;;13.90;99.90;;;;;;4997729;28;19910;-90
2023/06/18 02:55:58;;;;;;;13.77;9.40;;;13.90;99.90;;;;;;4997070;28;20022;-89
2023/06/18 02:58:30;;;;;;;10.50;8.70;;;13.80;99.90;;;;;;4999774;28;20034;-90
2023/06/18 03:00:59;;;;;;;12.52;8.60;;;13.80;99.90;;;;;;5014836;28;20066;-89
2023/06/18 03:03:25;;;;;;;10.95;9.50;;;13.80;99.90;;;;;;5009501;28;20030;-90
2023/06/18 03:05:51;;;;;;;13.00;8.80;;;13.80;99.90;;;;;;4995644;28;20372;-92
2023/06/18 03:08:18;;;;;;;10.13;9.13;;;13.80;99.90;;;;;;4995546;28;20030;-92
2023/06/18 03:10:44;;;;;;;10.90;8.80;;;13.80;99.90;;;;;;4995458;28;20042;-92
2023/06/18 03:13:10;;;;;;;10.85;8.98;;;13.80;99.90;;;;;;4995621;28;20038;-93
2023/06/18 03:15:36;;;;;;;;;;;13.80;99.90;;;;;;4998998;28;20049;-92
2023/06/18 03:18:02;;;;;;;9.13;8.23;;;13.80;99.90;;;;;;5015821;28;19905;-93
2023/06/18 03:20:27;;;;;;;;;;;13.80;99.90;;;;;;5015930;28;20487;-93
2023/06/18 03:22:54;;;;;;;9.70;8.70;;;13.90;99.90;;;;;;4998660;28;19913;-93
2023/06/18 03:25:19;;;;;;;16.58;8.80;;;13.90;99.90;;;;;;4996560;28;20028;-91
2023/06/18 03:27:45;;;;;;;;;;;14.00;99.90;;;;;;4997343;28;20120;-90
2023/06/18 03:30:12;;;;;;;12.98;9.00;;;14.00;99.90;;;;;;4997971;28;19913;-91
2023/06/18 03:32:37;;;;;;;12.38;8.88;;;14.10;99.90;;;;;;4997919;28;20030;-90
2023/06/18 03:35:04;;;;;;;;;;;14.20;99.90;;;;;;4998343;28;20017;-90
2023/06/18 03:37:33;;;;;;;9.77;8.77;;;14.20;99.90;;;;;;5018119;28;19905;-90
2023/06/18 03:39:59;;;;;;;11.98;7.68;;;14.30;99.90;;;;;;4997732;28;20030;-90
2023/06/18 03:42:24;;;;;;;;;;;14.30;99.90;;;;;;4998382;28;20544;-90
2023/06/18 03:44:50;;;;;;;8.13;7.30;;;14.40;99.90;;;;;;4996911;28;19932;-90
2023/06/18 03:47:17;;;;;;;11.77;8.15;;;14.50;99.90;;;;;;4996996;28;20026;-89
2023/06/18 03:49:42;;;;;;;9.00;8.10;;;14.60;99.90;;;;;;4997420;28;20121;-90
2023/06/18 03:52:08;;;;;;;;;;;14.70;99.90;;;;;;5015440;28;20101;-90
2023/06/18 03:54:35;;;;;;;9.60;8.27;;;14.80;99.90;;;;;;4997733;28;19988;-91
2023/06/18 03:57:01;;;;;;;8.82;7.82;;;14.90;99.90;;;;;;4997441;28;20041;-91
2023/06/18 03:59:28;;;;;;;10.05;7.22;;;15.00;99.90;;;;;;4997362;28;20502;-91
2023/06/18 04:01:54;;;;;;;8.82;6.55;;;15.10;99.90;;;;;;4997426;28;20030;-92
2023/06/18 04:04:20;;;;;;;7.90;6.85;;;15.30;99.90;;;;;;4997017;28;20038;-92
2023/06/18 04:06:46;;;;;;;9.10;5.68;;;15.60;99.90;;;;;;4997162;28;20048;-91
2023/06/18 04:09:11;;;;;;;12.43;5.85;;;16.00;99.90;;;;;;4997052;28;20397;-92
2023/06/18 04:11:42;;;;;;;14.52;6.95;;;16.40;99.90;;;;;;4995772;28;20541;-90
2023/06/18 04:14:08;;;;;;;6.90;6.20;;;16.70;99.90;;;;;;4996872;28;20140;-92
2023/06/18 04:16:34;;;;;;;6.55;5.30;;;16.90;99.90;;;;;;5002002;28;20068;-91
2023/06/18 04:19:00;;;;;;;6.15;5.20;;;17.10;99.90;;;;;;4996219;28;20494;-91
2023/06/18 04:21:25;;;;;;;6.15;5.15;;;17.10;99.90;;;;;;4997053;28;20033;-91
2023/06/18 04:23:53;;;;;;;5.75;5.15;;;17.20;99.90;;;;;;5001659;28;20034;-91
2023/06/18 04:26:18;;;;;;;9.77;6.15;;;17.40;99.90;;;;;;4997038;28;20029;-90
2023/06/18 04:28:44;;;;;;;7.50;5.63;;;17.40;99.90;;;;;;4999470;28;20030;-91
2023/06/18 04:31:10;;;;;;;7.43;5.93;;;17.60;99.90;;;;;;5018853;28;20088;-91
2023/06/18 04:33:36;;;;;;;10.50;5.60;;;17.70;99.90;;;;;;4995488;28;20037;-90
2023/06/18 04:36:02;;;;;;;7.20;5.78;;;17.80;99.90;;;;;;4997063;28;20025;-90
2023/06/18 04:38:27;;;;;;;5.82;5.20;;;18.00;99.90;;;;;;4996673;28;20430;-90
2023/06/18 04:40:53;;;;;;;5.13;4.63;;;18.10;99.90;;;;;;5014064;28;20168;-91
2023/06/18 04:43:19;;;;;;;5.72;5.13;;;18.20;99.90;;;;;;4996304;28;20498;-87
2023/06/18 04:45:48;;;;;;;7.25;5.97;;;18.30;99.90;;;;;;4996174;28;20137;-87
2023/06/18 04:48:14;;;;;;;8.75;5.25;;;18.50;99.90;;;;;;4996263;28;20138;-89
2023/06/18 04:50:40;;;;;;;6.80;5.55;;;18.60;99.90;;;;;;4994914;28;20124;-90
2023/06/18 04:53:06;;;;;;;5.95;5.35;;;18.70;99.90;;;;;;4996371;28;20022;-90
2023/06/18 04:55:32;;;;;;;5.28;4.72;;;18.80;99.90;;;;;;4995562;28;20026;-89
2023/06/18 04:57:58;;;;;;;5.72;5.05;;;18.90;99.90;;;;;;4996161;28;20038;-90
2023/06/18 05:00:23;;;;;;;5.57;4.53;;;19.10;99.90;;;;;;4996098;28;20025;-90
2023/06/18 05:02:49;;;;;;;6.20;5.15;;;19.20;99.90;;;;;;5013570;28;20386;-89
2023/06/18 05:05:15;;;;;;;7.20;4.88;;;19.30;99.90;;;;;;5013428;28;20030;-90
2023/06/18 05:07:42;;;;;;;6.00;5.00;;;19.40;99.90;;;;;;4995542;28;20080;-86
2023/06/18 05:10:08;;;;;;;7.47;6.22;;;19.50;99.90;;;;;;5012968;28;20061;-87
2023/06/18 05:12:34;;;;;;;6.75;5.00;;;19.70;99.90;;;;;;5013233;28;20075;-87
2023/06/18 05:15:00;;;;;;;8.80;5.68;;;19.70;99.90;;;;;;4994510;28;20049;-87
2023/06/18 05:17:26;;;;;;;6.82;5.95;;;19.90;99.90;;;;;;5013135;28;20513;-87
2023/06/18 05:19:51;;;;;;;6.45;5.53;;;20.00;99.90;;;;;;4995968;28;20065;-88
2023/06/18 05:22:17;;;;;;;5.75;5.15;;;20.20;99.90;;;;;;4995755;28;20541;-88
2023/06/18 05:24:43;;;;;;;8.50;5.50;;;20.40;99.90;;;;;;4995712;28;20030;-88
2023/06/18 05:27:08;;;;;;;5.38;4.85;;;20.60;99.90;;;;;;4995604;28;20071;-87
2023/06/18 05:29:34;;;;;;;5.90;5.15;;;20.70;99.90;;;;;;4995504;28;20073;-85
2023/06/18 05:32:00;;;;;;;6.68;4.75;;;20.80;99.90;;;;;;5012884;28;20033;-86
2023/06/18 05:34:25;;;;;;;7.70;4.75;;;20.90;99.90;;;;;;4995336;28;20161;-87
2023/06/18 05:36:51;;;;;;;5.47;4.90;;;21.00;99.90;;;;;;4994469;28;20100;-85
2023/06/18 05:39:17;;;;;;;6.47;4.97;;;21.10;99.90;;;;;;5011578;28;20033;-85
2023/06/18 05:41:42;;;;;;;5.18;4.68;;;21.20;99.90;;;;;;4994519;28;20033;-85
2023/06/18 05:44:08;;;;;;;9.60;5.25;;;21.40;99.90;;;;;;4993095;28;20030;-84
2023/06/18 05:46:34;;;;;;;7.60;4.82;;;21.60;99.90;;;;;;5011724;28;20030;-86
2023/06/18 05:48:59;;;;;;;4.80;4.30;;;21.90;99.90;;;;;;4993455;28;20026;-85
2023/06/18 05:51:25;;;;;;;8.85;5.43;;;22.20;99.90;;;;;;5010522;28;20046;-84
2023/06/18 05:53:51;;;;;;;5.30;4.28;;;22.40;99.90;;;;;;5011473;28;20503;-86
2023/06/18 05:56:17;;;;;;;15.73;4.75;;;23.10;99.90;;;;;;4993923;28;20030;-86
2023/06/18 05:58:42;;;;;;;5.93;4.93;;;24.10;99.90;;;;;;4993025;28;20054;-86
2023/06/18 06:01:08;;;;;;;5.40;4.53;;;25.50;94.80;;;;;;5011222;28;20061;-85
2023/06/18 06:03:35;;;;;;;7.97;4.20;;;26.90;83.60;;;;;;5010276;28;20060;-84
2023/06/18 06:06:02;;;;;;;4.78;4.03;;;28.20;71.10;;;;;;4993387;28;20030;-85
2023/06/18 06:08:28;;;;;;;4.30;3.88;;;29.30;61.70;;;;;;5014029;28;20395;-87
2023/06/18 06:10:54;;;;;;;4.32;3.78;;;30.00;57.20;;;;;;4998634;28;20152;-85
2023/06/18 06:13:20;;;;;;;7.82;4.70;;;30.90;53.60;;;;;;4999804;28;20030;-86
2023/06/18 06:15:45;;;;;;;7.07;4.85;;;31.30;50.60;;;;;;4999210;28;20026;-86
2023/06/18 06:18:11;;;;;;;4.18;3.67;;;31.90;48.90;;;;;;4997243;28;20172;-87
2023/06/18 06:20:36;;;;;;;6.35;5.45;;;32.50;47.40;;;;;;4997048;28;20103;-87
2023/06/18 06:23:02;;;;;;;8.23;4.40;;;32.60;45.90;;;;;;4996859;28;20120;-87
2023/06/18 06:25:28;;;;;;;6.70;4.50;;;32.70;45.90;;;;;;4996508;28;20030;-86
2023/06/18 06:27:54;;;;;;;4.95;4.45;;;32.80;45.50;;;;;;5013576;28;20064;-85
2023/06/18 06:30:20;;;;;;;5.95;4.30;;;33.10;44.20;;;;;;5013912;28;20112;-86
2023/06/18 06:32:45;;;;;;;7.22;4.43;;;33.30;43.70;;;;;;4998348;28;20054;-87
2023/06/18 06:35:11;;;;;;;5.72;4.10;;;33.70;42.00;;;;;;4997196;28;20034;-87
2023/06/18 06:37:37;;;;;;;5.63;4.20;;;33.30;43.00;;;;;;5014382;28;20018;-87
2023/06/18 06:40:03;;;;;;;11.95;4.10;;;33.60;42.10;;;;;;5013379;28;20302;-87
2023/06/18 06:42:30;;;;;;;5.03;3.83;;;33.40;42.30;;;;;;4996632;28;20025;-87
2023/06/18 06:44:56;;;;;;;8.85;4.50;;;33.50;42.20;;;;;;4995978;28;20034;-87
2023/06/18 06:47:21;;;;;;;5.53;4.05;;;33.40;42.10;;;;;;4996025;28;20029;-86
2023/06/18 06:49:47;;;;;;;10.65;4.50;;;33.40;41.70;;;;;;4995632;28;20034;-87
2023/06/18 06:52:13;;;;;;;5.38;4.15;;;33.50;41.40;;;;;;4996388;28;20034;-87
2023/06/18 06:54:38;;;;;;;6.35;4.10;;;33.20;41.40;;;;;;5013442;28;20490;-87
2023/06/18 06:57:04;;;;;;;6.43;4.40;;;33.00;42.30;;;;;;4995929;28;20506;-87
2023/06/18 06:59:30;;;;;;;10.75;3.97;;;33.20;41.50;;;;;;5013747;28;20545;-86
2023/06/18 07:01:56;;;;;;;8.35;4.22;;;33.40;40.90;;;;;;4996124;28;20030;-88
2023/06/18 07:04:22;;;;;;;6.97;5.18;;;33.40;41.40;;;;;;5012863;28;20033;-88
2023/06/18 07:06:49;;;;;;;6.05;4.78;;;33.40;41.20;;;;;;5013307;28;20430;-87
2023/06/18 07:09:15;;;;;;;7.45;4.70;;;33.10;41.30;;;;;;5013329;28;20076;-87
2023/06/18 07:11:40;;;;;;;7.57;4.20;;;33.30;41.20;;;;;;4995724;28;20037;-84
2023/06/18 07:14:06;;;;;;;4.72;3.28;;;33.30;41.00;;;;;;4995140;28;20054;-87
2023/06/18 07:16:33;;;;;;;6.82;3.55;;;33.20;40.30;;;;;;5013317;28;20037;-88
2023/06/18 07:18:58;;;;;;;11.50;3.60;;;33.50;39.10;;;;;;5011730;28;20061;-87
2023/06/18 07:21:24;;;;;;;8.20;3.05;;;33.40;40.00;;;;;;4995965;28;20080;-87
2023/06/18 07:23:50;;;;;;;3.20;2.85;;;33.40;38.80;;;;;;4995244;28;20121;-88
2023/06/18 07:26:16;;;;;;;3.30;3.00;;;33.60;39.00;;;;;;4995093;28;20116;-85
2023/06/18 07:28:41;;;;;;;4.30;2.83;;;33.40;39.10;;;;;;4996188;28;20041;-87
2023/06/18 07:31:07;;;;;;;3.85;3.20;;;33.50;40.00;;;;;;4995230;28;20495;-85
2023/06/18 07:33:32;;;;;;;3.65;3.30;;;33.10;39.70;;;;;;4994919;28;20025;-86
2023/06/18 07:35:58;;;;;;;5.93;3.65;;;33.30;39.50;;;;;;4995620;28;20560;-87
2023/06/18 07:38:24;;;;;;;8.93;3.30;;;33.10;40.00;;;;;;5012590;28;20034;-86
2023/06/18 07:40:50;;;;;;;3.97;3.30;;;33.40;38.80;;;;;;4996145;28;20109;-88
2023/06/18 07:43:16;;;;;;;3.92;3.00;;;33.70;37.90;;;;;;5012638;28;20025;-88
2023/06/18 07:45:41;;;;;;;4.70;3.13;;;33.90;38.40;;;;;;4995335;28;20406;-86
2023/06/18 07:48:10;;;;;;;6.45;2.83;;;33.60;37.90;;;;;;4995292;28;20037;-87
2023/06/18 07:50:36;;;;;;;4.55;3.00;;;33.50;39.20;;;;;;5012724;28;20026;-87
2023/06/18 07:53:02;;;;;;;7.63;2.78;;;33.50;38.90;;;;;;4994986;28;20520;-88
2023/06/18 07:55:27;;;;;;;5.93;2.90;;;33.70;39.90;;;;;;4994650;28;20040;-86
2023/06/18 07:57:53;;;;;;;6.43;2.72;;;33.80;38.90;;;;;;5013218;28;20030;-88
2023/06/18 08:00:19;;;;;;;7.57;2.80;;;34.00;38.50;;;;;;4995201;28;20402;-85
2023/06/18 08:02:46;;;;;;;8.90;3.60;;;34.00;38.10;;;;;;4995198;28;20034;-87
2023/06/18 08:05:12;;;;;;;6.07;2.83;;;34.00;39.10;;;;;;5012300;28;20018;-86
2023/06/18 08:07:39;;;;;;;4.10;2.92;;;34.20;38.80;;;;;;4993942;28;20053;-85
2023/06/18 08:10:05;;;;;;;3.38;2.80;;;34.00;37.80;;;;;;5011939;28;20043;-86
2023/06/18 08:12:31;;;;;;;6.70;2.72;;;33.90;37.70;;;;;;5012151;28;20022;-88
2023/06/18 08:14:57;;;;;;;4.65;2.45;;;34.00;38.10;;;;;;4994209;28;20057;-87
2023/06/18 08:17:23;;;;;;;3.15;2.65;;;34.00;37.30;;;;;;4995851;28;20478;-86
2023/06/18 08:19:50;;;;;;;7.10;2.20;;;33.80;37.40;;;;;;4994572;28;20054;-85
2023/06/18 08:22:16;;;;;;;6.57;2.40;;;34.10;37.50;;;;;;5011920;28;20030;-88
2023/06/18 08:24:42;;;;;;;6.88;2.35;;;34.20;37.40;;;;;;5011189;28;20061;-85
2023/06/18 08:27:08;;;;;;;9.32;7.00;;;34.10;37.60;;;;;;5011872;28;20049;-87
2023/06/18 08:29:33;;;;;;;3.35;2.20;;;34.40;36.80;;;;;;5011059;28;20451;-87
2023/06/18 08:32:04;;;;;;;3.92;2.70;;;34.30;36.30;;;;;;4993977;28;20038;-88
2023/06/18 08:34:31;;;;;;;3.95;1.92;;;34.50;36.60;;;;;;4994957;28;20113;-88
2023/06/18 08:36:57;;;;;;;5.45;2.70;;;34.80;35.00;;;;;;4995708;28;20065;-86
2023/06/18 08:39:23;;;;;;;5.35;2.38;;;34.90;33.70;;;;;;4993597;28;20033;-86
2023/06/18 08:41:49;;;;;;;2.05;1.83;;;34.50;34.80;;;;;;4994147;28;20120;-87
2023/06/18 08:44:15;;;;;;;3.03;1.90;;;34.30;34.80;;;;;;4993724;28;20056;-87
2023/06/18 08:46:43;;;;;;;3.22;1.90;;;34.00;34.90;;;;;;4993573;28;20477;-88
2023/06/18 08:49:10;;;;;;;2.58;1.70;;;34.20;34.60;;;;;;4994174;28;20037;-87
2023/06/18 08:51:38;;;;;;;1.67;1.42;;;34.50;34.80;;;;;;4993706;28;20045;-87
2023/06/18 08:54:15;;;;;;;2.33;1.80;;;34.60;32.90;;;;;;4994209;28;20037;-87
2023/06/18 08:56:47;;;;;;;6.03;1.65;;;34.90;32.60;;;;;;4994304;28;20383;-88
2023/06/18 08:59:13;;;;;;;2.00;1.48;;;34.70;30.70;;;;;;5011821;28;20080;-88
2023/06/18 09:01:41;;;;;;;4.63;1.63;;;34.60;31.10;;;;;;4994354;28;20049;-87
2023/06/18 09:04:07;;;;;;;2.90;1.30;;;34.50;32.40;;;;;;4993799;28;20021;-87
2023/06/18 09:06:34;;;;;;;10.50;1.60;;;34.40;33.40;;;;;;5011201;28;20018;-86
2023/06/18 09:09:00;;;;;;;2.25;1.60;;;34.60;31.60;;;;;;5011880;28;20026;-87
2023/06/18 09:11:26;;;;;;;6.13;2.60;;;34.30;31.30;;;;;;4993882;28;20042;-88
2023/06/18 09:13:53;;;;;;;2.28;1.50;;;34.40;31.50;;;;;;5010976;28;20056;-88
2023/06/18 09:16:19;;;;;;;6.15;1.52;;;34.60;32.80;;;;;;4993772;28;20048;-87
2023/06/18 09:18:45;;;;;;;2.33;1.40;;;34.90;32.50;;;;;;4994019;28;20572;-87
2023/06/18 09:21:38;;;;;;;2.55;1.42;;;35.00;31.80;;;;;;5014817;28;20052;-87
2023/06/18 09:24:08;;;;;;;5.32;1.60;;;35.00;31.10;;;;;;5000977;28;20025;-87
2023/06/18 09:26:35;;;;;;;1.88;1.08;;;35.10;31.00;;;;;;4996105;28;20030;-88
2023/06/18 09:29:05;;;;;;;2.88;1.00;;;35.40;31.30;;;;;;5011323;28;20076;-88
2023/06/18 09:31:31;;;;;;;1.70;1.27;;;35.50;29.80;;;;;;4995428;28;20044;-89
2023/06/18 09:33:56;;;;;;;4.20;1.27;;;35.40;29.70;;;;;;4994144;28;20413;-90
2023/06/18 09:36:25;;;;;;;1.95;0.90;;;35.40;30.30;;;;;;5011450;28;20044;-88
2023/06/18 09:38:53;;;;;;;1.75;0.90;;;35.50;28.40;;;;;;5011051;28;20032;-89
2023/06/18 09:41:19;;;;;;;4.10;1.00;;;35.50;27.80;;;;;;5010801;28;20498;-88
2023/06/18 09:43:48;;;;;;;1.20;0.75;;;35.40;27.60;;;;;;5014123;28;20045;-88
2023/06/18 09:46:15;;;;;;;5.97;0.80;;;35.50;27.10;;;;;;5015476;28;20101;-87
2023/06/18 09:48:46;;;;;;;1.58;0.73;;;35.10;26.80;;;;;;4997484;28;20483;-86
2023/06/18 09:51:14;;;;;;;2.45;0.70;;;35.20;26.90;;;;;;4998114;28;20034;-88
2023/06/18 09:53:40;;;;;;;1.60;0.93;;;35.20;26.80;;;;;;4998251;28;20026;-88
2023/06/18 09:56:16;;;;;;;9.32;1.50;;;35.40;26.90;;;;;;5014847;28;20037;-87
2023/06/18 09:58:50;;;;;;;1.38;1.00;;;35.40;27.00;;;;;;5015310;28;20036;-88
2023/06/18 10:01:17;;;;;;;1.55;0.73;;;35.20;26.70;;;;;;4997486;28;20530;-89
2023/06/18 10:03:44;;;;;;;1.20;0.82;;;34.80;27.00;;;;;;4997528;28;20113;-89
2023/06/18 10:06:22;;;;;;;2.92;1.00;;;34.00;26.10;;;;;;4998196;28;20030;-87
2023/06/18 10:08:56;;;;;;;1.30;0.82;;;33.20;27.80;;;;;;4997432;28;20038;-89
2023/06/18 10:11:22;;;;;;;3.95;1.55;;;32.80;28.80;;;;;;5015706;28;20041;-88
2023/06/18 10:13:57;;;;;;;1.42;0.82;;;32.30;28.40;;;;;;5014001;28;20068;-87
2023/06/18 10:16:28;;;;;;;1.92;1.25;;;31.90;29.00;;;;;;4997049;28;20030;-86
2023/06/18 10:19:13;;;;;;;1.52;0.90;;;31.50;29.40;;;;;;5015496;28;20211;-85
2023/06/18 10:21:46;;;;;;;1.70;1.25;;;31.20;28.60;;;;;;5014751;28;20014;-84
2023/06/18 10:24:17;;;;;;;2.55;0.93;;;31.10;30.40;;;;;;4996340;28;20034;-85
2023/06/18 10:26:43;;;;;;;1.52;0.70;;;31.10;31.50;;;;;;4996909;28;20030;-85
2023/06/18 10:29:10;;;;;;;3.22;1.23;;;31.00;30.50;;;;;;4996702;28;20026;-86
2023/06/18 10:31:37;;;;;;;1.83;0.95;;;30.70;27.70;;;;;;4996304;28;20046;-86
2023/06/18 10:34:02;;;;;;;1.67;0.98;;;30.30;28.70;;;;;;4997134;28;20018;-86
2023/06/18 10:36:29;;;;;;;1.40;1.02;;;30.00;29.00;;;;;;5000662;28;20124;-86
2023/06/18 10:38:56;;;;;;;1.88;1.23;;;29.50;30.30;;;;;;4997320;28;20061;-88
2023/06/18 10:41:22;;;;;;;2.25;1.13;;;29.10;32.10;;;;;;4997268;28;20487;-88
2023/06/18 10:43:52;;;;;;;4.68;1.35;;;28.90;33.70;;;;;;4996988;28;20033;-88
2023/06/18 10:46:19;;;;;;;2.78;1.27;;;28.80;35.60;;;;;;4996969;28;20486;-88
2023/06/18 10:49:10;;;;;;;1.70;0.90;;;28.90;36.10;;;;;;5014312;28;20026;-88
2023/06/18 10:51:36;;;;;;;3.38;0.70;;;29.00;34.10;;;;;;5014653;28;20376;-86
2023/06/18 10:54:31;;;;;;;2.47;0.95;;;29.00;35.40;;;;;;5013900;28;20435;-86
2023/06/18 10:56:58;;;;;;;1.35;1.02;;;29.10;35.20;;;;;;5005416;28;20064;-86
2023/06/18 10:59:40;;;;;;;2.20;1.02;;;29.00;35.10;;;;;;4996305;28;20030;-87
2023/06/18 11:02:06;;;;;;;2.40;0.90;;;29.00;35.80;;;;;;4996928;28;20026;-86
2023/06/18 11:04:33;;;;;;;3.38;0.90;;;29.10;35.80;;;;;;5014159;28;20029;-86
2023/06/18 11:07:18;;;;;;;2.38;0.95;;;29.20;34.30;;;;;;4996508;28;20073;-87
2023/06/18 11:09:57;;;;;;;2.17;1.17;;;29.10;35.80;;;;;;4996329;28;20049;-87
2023/06/18 11:12:33;;;;;;;2.55;0.80;;;29.10;36.50;;;;;;4996516;28;20034;-87
2023/06/18 11:15:18;;;;;;;2.00;1.15;;;29.10;36.90;;;;;;4996203;28;20050;-87
2023/06/18 11:17:46;;;;;;;3.90;0.90;;;29.20;36.30;;;;;;4996203;28;20510;-88
2023/06/18 11:20:14;;;;;;;2.35;1.10;;;29.20;36.70;;;;;;4996381;28;20029;-88
2023/06/18 11:22:41;;;;;;;5.03;1.20;;;29.10;36.40;;;;;;4996209;28;20059;-88
2023/06/18 11:25:08;;;;;;;5.53;1.00;;;29.10;37.20;;;;;;4996179;28;20026;-88
2023/06/18 11:27:34;;;;;;;3.40;1.13;;;29.10;36.50;;;;;;4995998;28;20034;-87
2023/06/18 11:30:00;;;;;;;3.03;1.10;;;29.00;36.10;;;;;;4996077;28;20042;-87
2023/06/18 11:32:27;;;;;;;3.50;1.55;;;29.00;37.10;;;;;;4996242;28;20026;-89
2023/06/18 11:34:55;;;;;;;2.58;1.13;;;29.00;37.70;;;;;;4996192;28;20030;-89
2023/06/18 11:37:33;;;;;;;1.50;1.10;;;28.90;37.00;;;;;;4996360;28;20022;-89
2023/06/18 11:39:59;;;;;;;3.90;1.00;;;29.00;37.10;;;;;;5013154;28;20030;-89
2023/06/18 11:42:28;;;;;;;1.65;1.00;;;29.00;36.50;;;;;;4995976;28;20029;-89
2023/06/18 11:45:02;;;;;;;3.83;1.42;;;29.10;36.20;;;;;;5013140;28;20876;-88
2023/06/18 11:47:29;;;;;;;1.85;0.90;;;29.20;35.80;;;;;;5013410;28;20056;-87
2023/06/18 11:49:56;;;;;;;1.50;0.90;;;29.30;35.10;;;;;;4999899;28;20050;-89
2023/06/18 11:52:24;;;;;;;2.42;1.15;;;29.30;34.90;;;;;;4996667;28;20049;-89
2023/06/18 11:54:51;;;;;;;2.03;1.20;;;29.30;35.90;;;;;;4995829;28;20030;-90
2023/06/18 11:57:19;;;;;;;6.18;1.27;;;29.20;36.50;;;;;;4995571;28;20033;-88
2023/06/18 11:59:50;;;;;;;2.08;1.77;;;29.20;36.80;;;;;;5013097;28;20026;-87
2023/06/18 12:02:19;;;;;;;2.17;1.50;;;29.10;37.30;;;;;;4995967;28;20033;-88
2023/06/18 12:04:45;;;;;;;2.95;1.27;;;29.10;37.20;;;;;;4994908;28;20422;-88
2023/06/18 12:07:19;;;;;;;1.98;0.90;;;29.10;37.10;;;;;;4995710;28;20030;-90
2023/06/18 12:09:45;;;;;;;3.75;1.48;;;29.10;36.90;;;;;;4995448;28;20024;-88
2023/06/18 12:12:23;;;;;;;1.98;1.20;;;29.00;36.80;;;;;;4995571;28;20034;-90
2023/06/18 12:15:16;;;;;;;2.78;1.30;;;29.10;37.40;;;;;;4995821;28;20155;-88
2023/06/18 12:18:03;;;;;;;3.22;1.10;;;29.20;36.80;;;;;;4996590;28;20109;-88
2023/06/18 12:20:29;;;;;;;2.60;1.38;;;29.30;37.20;;;;;;4995562;28;20022;-88
2023/06/18 12:22:56;;;;;;;3.05;1.02;;;29.30;37.20;;;;;;4996108;28;20030;-89
2023/06/18 12:25:26;;;;;;;8.07;1.40;;;29.40;38.90;;;;;;4995504;28;20451;-90
2023/06/18 12:27:53;;;;;;;2.92;1.35;;;29.60;38.70;;;;;;4996335;28;20037;-89
2023/06/18 12:30:27;;;;;;;1.90;1.38;;;29.60;37.90;;;;;;4996203;28;20037;-89
2023/06/18 12:33:05;;;;;;;2.10;1.33;;;29.20;36.70;;;;;;5016188;28;20022;-88
2023/06/18 12:35:32;;;;;;;1.80;1.20;;;29.10;38.40;;;;;;5015911;28;20034;-89
2023/06/18 12:38:06;;;;;;;3.90;1.52;;;29.10;38.60;;;;;;5002513;28;20022;-88
2023/06/18 12:40:33;;;;;;;2.85;1.27;;;29.10;38.80;;;;;;4997035;28;20037;-88
2023/06/18 12:43:00;;;;;;;4.60;1.30;;;29.20;38.60;;;;;;5013544;28;20410;-89
2023/06/18 12:45:32;;;;;;;2.20;1.50;;;29.10;38.50;;;;;;5013049;28;20018;-89
2023/06/18 12:48:10;;;;;;;2.33;1.40;;;29.10;37.60;;;;;;4994917;28;20037;-87
2023/06/18 12:50:39;;;;;;;2.80;1.38;;;29.20;37.70;;;;;;4994539;28;20045;-89